Time;durP1;ratioP1;P1;durP2;ratioP2;P2;SDS_P1;SDS_P2;PMS_P1;PMS_P2;Temp;Humidity;BMP_temperature;BMP_pressure;BME280_temperature;BME280_humidity;BME280_pressure;Samples;Min_cycle;Max_cycle;Signal;HPM_P1;HPM_P2
2023/06/08 00:00:39;;;;;;;1.52;1.35;;;17.80;1.00;;;;;;5040886;28;20910;-71
2023/06/08 00:03:06;;;;;;;1.40;1.30;;;17.70;1.00;;;;;;5038486;28;20824;-71
2023/06/08 00:05:43;;;;;;;2.20;1.95;;;17.70;1.00;;;;;;5034844;28;20453;-71
2023/06/08 00:08:11;;;;;;;1.50;1.40;;;17.70;1.00;;;;;;5032920;28;20419;-71
2023/06/08 00:10:43;;;;;;;1.15;1.15;;;17.60;1.00;;;;;;5043854;28;20457;-71
2023/06/08 00:13:10;;;;;;;1.42;1.33;;;17.60;1.00;;;;;;5037958;28;20435;-71
2023/06/08 00:15:37;;;;;;;2.90;1.30;;;17.60;1.00;;;;;;5043317;28;20512;-72
2023/06/08 00:18:10;;;;;;;1.92;1.83;;;17.50;1.00;;;;;;5042120;28;20429;-71
2023/06/08 00:20:39;;;;;;;1.20;1.20;;;17.50;1.00;;;;;;5043653;28;20435;-71
2023/06/08 00:23:05;;;;;;;2.63;1.48;;;17.40;1.00;;;;;;5029244;28;20425;-71
2023/06/08 00:25:34;;;;;;;2.70;1.30;;;17.40;1.00;;;;;;5041540;28;20429;-71
2023/06/08 00:28:04;;;;;;;1.33;1.33;;;17.30;1.00;;;;;;5040709;28;20835;-71
2023/06/08 00:30:31;;;;;;;1.13;1.13;;;17.20;1.00;;;;;;5041058;28;20889;-72
2023/06/08 00:32:58;;;;;;;1.52;1.42;;;17.10;1.00;;;;;;5040479;28;20457;-72
2023/06/08 00:35:24;;;;;;;2.43;1.20;;;17.10;1.00;;;;;;5037178;28;20467;-73
2023/06/08 00:37:52;;;;;;;1.00;1.00;;;17.10;1.00;;;;;;5042408;28;20962;-72
2023/06/08 00:40:21;;;;;;;1.40;1.30;;;17.00;10.20;;;;;;5041043;28;20444;-72
2023/06/08 00:42:49;;;;;;;2.55;2.00;;;17.00;99.90;;;;;;5042728;28;20457;-72
2023/06/08 00:45:18;;;;;;;1.48;1.38;;;16.80;99.90;;;;;;5042421;28;20429;-72
2023/06/08 00:47:46;;;;;;;1.70;1.60;;;16.70;99.90;;;;;;5040036;28;20465;-72
2023/06/08 00:50:16;;;;;;;1.65;1.55;;;16.70;99.90;;;;;;5040436;28;20484;-72
2023/06/08 00:52:44;;;;;;;1.58;1.48;;;16.70;99.90;;;;;;5040964;28;20470;-72
2023/06/08 00:55:11;;;;;;;1.30;1.25;;;16.60;99.90;;;;;;5040020;28;20440;-72
2023/06/08 00:57:47;;;;;;;1.38;1.38;;;16.60;99.90;;;;;;5041977;28;20893;-72
2023/06/08 01:00:14;;;;;;;1.42;1.35;;;16.50;99.90;;;;;;5037378;28;20672;-72
2023/06/08 01:02:41;;;;;;;1.52;1.50;;;16.50;99.90;;;;;;5036364;28;20461;-72
2023/06/08 01:05:08;;;;;;;1.80;1.70;;;16.50;1.00;;;;;;5036634;28;21005;-72
2023/06/08 01:07:57;;;;;;;2.40;1.50;;;16.60;99.90;;;;;;5038552;28;20792;-72
2023/06/08 01:10:46;;;;;;;1.15;1.15;;;16.60;99.90;;;;;;5037951;28;20455;-72
2023/06/08 01:13:27;;;;;;;1.70;1.55;;;16.70;99.90;;;;;;5041052;28;20556;-72
2023/06/08 01:16:02;;;;;;;1.37;1.37;;;16.80;99.90;;;;;;5036872;28;20437;-72
2023/06/08 01:18:38;;;;;;;1.48;1.30;;;16.80;58.80;;;;;;5071376;28;20444;-72
2023/06/08 01:21:40;;;;;;;1.50;1.40;;;16.80;74.90;;;;;;5037067;28;20434;-72
2023/06/08 01:24:19;;;;;;;1.60;1.50;;;16.70;99.90;;;;;;5036235;28;20460;-72
2023/06/08 01:26:52;;;;;;;1.25;1.25;;;16.50;99.90;;;;;;5037485;28;20429;-72
2023/06/08 01:29:25;;;;;;;2.13;1.60;;;16.60;99.90;;;;;;5035283;28;20583;-72
2023/06/08 01:31:52;;;;;;;1.67;1.58;;;16.50;99.90;;;;;;5071042;28;20584;-72
2023/06/08 01:34:20;;;;;;;2.30;1.58;;;16.50;99.90;;;;;;5036242;28;20440;-72
2023/06/08 01:37:02;;;;;;;2.00;1.63;;;16.40;99.90;;;;;;5036977;28;20465;-72
2023/06/08 01:39:41;;;;;;;1.77;1.67;;;16.50;99.90;;;;;;5034844;28;20444;-72
2023/06/08 01:42:10;;;;;;;1.50;1.40;;;16.40;99.90;;;;;;5037337;28;20513;-72
2023/06/08 01:45:03;;;;;;;1.40;1.30;;;16.40;99.90;;;;;;5037882;28;20813;-72
2023/06/08 01:47:52;;;;;;;1.60;1.50;;;16.40;99.90;;;;;;5039275;28;20483;-72
2023/06/08 01:50:20;;;;;;;1.58;1.48;;;16.40;99.90;;;;;;5034947;28;20488;-72
2023/06/08 01:52:48;;;;;;;1.27;1.27;;;16.40;99.90;;;;;;5039345;28;20441;-72
2023/06/08 01:55:19;;;;;;;1.58;1.40;;;16.40;99.90;;;;;;5040050;28;20439;-72
2023/06/08 01:57:46;;;;;;;1.23;1.20;;;16.30;99.90;;;;;;5038669;28;21608;-72
2023/06/08 02:00:16;;;;;;;2.00;1.50;;;16.30;99.90;;;;;;5035614;28;20518;-72
2023/06/08 02:02:43;;;;;;;1.40;1.40;;;16.30;99.90;;;;;;5039419;28;20445;-72
2023/06/08 02:05:11;;;;;;;1.50;1.40;;;16.30;99.90;;;;;;5040270;28;20435;-72
2023/06/08 02:07:42;;;;;;;1.20;1.20;;;16.20;99.90;;;;;;5029677;28;20516;-72
2023/06/08 02:10:10;;;;;;;1.45;1.35;;;16.10;1.00;;;;;;5038043;28;20456;-72
2023/06/08 02:12:40;;;;;;;1.98;1.45;;;16.10;1.00;;;;;;5038094;28;20443;-72
2023/06/08 02:15:08;;;;;;;2.30;1.50;;;16.10;1.00;;;;;;5035006;28;20843;-72
2023/06/08 02:17:35;;;;;;;1.30;1.20;;;16.00;1.00;;;;;;5036400;28;20421;-72
2023/06/08 02:20:08;;;;;;;1.37;1.30;;;16.00;1.00;;;;;;5037282;28;20437;-72
2023/06/08 02:22:38;;;;;;;1.37;1.30;;;15.90;11.70;;;;;;5033271;28;20434;-72
2023/06/08 02:25:07;;;;;;;1.33;1.23;;;15.90;99.90;;;;;;5035368;28;20659;-72
2023/06/08 02:27:36;;;;;;;1.13;1.13;;;15.90;95.60;;;;;;5035007;28;20505;-73
2023/06/08 02:30:05;;;;;;;1.27;1.27;;;15.90;99.90;;;;;;5036841;28;20425;-72
2023/06/08 02:32:36;;;;;;;1.77;1.63;;;15.80;99.90;;;;;;5035646;28;20626;-72
2023/06/08 02:35:04;;;;;;;1.50;1.40;;;15.80;99.90;;;;;;5067573;28;20495;-72
2023/06/08 02:37:33;;;;;;;1.40;1.40;;;15.70;99.90;;;;;;5037738;28;20460;-72
2023/06/08 02:40:01;;;;;;;1.50;1.40;;;15.70;99.90;;;;;;5035659;28;20436;-72
2023/06/08 02:42:28;;;;;;;1.27;1.20;;;15.70;99.90;;;;;;5035162;28;20539;-72
2023/06/08 02:44:55;;;;;;;2.00;1.90;;;15.70;99.90;;;;;;5035266;28;21113;-72
2023/06/08 02:47:21;;;;;;;1.30;1.20;;;15.60;99.90;;;;;;5036315;28;20831;-72
2023/06/08 02:49:48;;;;;;;1.55;1.40;;;15.50;1.00;;;;;;5035935;28;20421;-72
2023/06/08 02:52:15;;;;;;;1.00;1.00;;;15.40;29.50;;;;;;5037122;28;20431;-72
2023/06/08 02:54:41;;;;;;;1.48;1.38;;;15.40;99.90;;;;;;5035088;28;20740;-72
2023/06/08 02:57:08;;;;;;;1.70;1.60;;;15.40;99.90;;;;;;5038356;28;20573;-72
2023/06/08 02:59:36;;;;;;;1.55;1.30;;;15.30;1.00;;;;;;5039762;28;20985;-72
2023/06/08 03:02:04;;;;;;;2.50;1.35;;;15.30;1.00;;;;;;5035256;28;20764;-72
2023/06/08 03:04:30;;;;;;;1.52;1.42;;;15.30;37.70;;;;;;5035598;28;20494;-72
2023/06/08 03:06:57;;;;;;;1.38;1.27;;;15.30;99.90;;;;;;5038327;28;20439;-72
2023/06/08 03:09:34;;;;;;;1.20;1.20;;;15.20;1.00;;;;;;5067111;28;20429;-72
2023/06/08 03:12:05;;;;;;;1.67;1.58;;;15.20;1.00;;;;;;5040662;28;20491;-72
2023/06/08 03:14:35;;;;;;;1.20;1.20;;;15.20;1.00;;;;;;5037577;28;21042;-72
2023/06/08 03:17:03;;;;;;;1.65;1.55;;;15.20;1.00;;;;;;5037093;28;21708;-72
2023/06/08 03:19:32;;;;;;;1.50;1.50;;;15.20;99.90;;;;;;5036738;28;20433;-72
2023/06/08 03:22:02;;;;;;;1.80;1.40;;;15.20;99.90;;;;;;5038430;28;20473;-72
2023/06/08 03:24:31;;;;;;;1.58;1.48;;;15.20;99.90;;;;;;5036834;28;20516;-73
2023/06/08 03:27:01;;;;;;;1.30;1.30;;;15.20;99.90;;;;;;5037931;28;20450;-72
2023/06/08 03:29:29;;;;;;;1.77;1.67;;;15.20;1.00;;;;;;5037917;28;20443;-72
2023/06/08 03:31:57;;;;;;;1.85;1.38;;;15.20;1.00;;;;;;5036033;28;20522;-72
2023/06/08 03:34:27;;;;;;;1.52;1.42;;;15.20;65.90;;;;;;5042468;28;20443;-72
2023/06/08 03:36:55;;;;;;;1.30;1.25;;;15.30;1.00;;;;;;5041209;28;20524;-72
2023/06/08 03:39:22;;;;;;;1.15;1.05;;;15.30;1.00;;;;;;5042091;28;20452;-72
2023/06/08 03:41:49;;;;;;;1.60;1.50;;;15.40;95.60;;;;;;5041370;28;20639;-72
2023/06/08 03:44:17;;;;;;;1.50;1.40;;;15.40;99.90;;;;;;5039652;28;21019;-72
2023/06/08 03:46:46;;;;;;;1.90;1.58;;;15.50;99.90;;;;;;5038999;28;20853;-72
2023/06/08 03:49:16;;;;;;;1.80;1.70;;;15.50;99.90;;;;;;5038942;28;20432;-72
2023/06/08 03:51:46;;;;;;;1.40;1.40;;;15.50;99.90;;;;;;5037844;28;20432;-72
2023/06/08 03:54:15;;;;;;;1.67;1.58;;;15.50;99.90;;;;;;5037932;28;20920;-72
2023/06/08 03:56:41;;;;;;;1.43;1.33;;;15.60;1.00;;;;;;5035848;28;20823;-72
2023/06/08 03:59:10;;;;;;;1.05;1.00;;;15.60;99.90;;;;;;5040346;28;20545;-72
2023/06/08 04:01:41;;;;;;;3.10;1.70;;;15.70;1.00;;;;;;5034108;28;20433;-72
2023/06/08 04:04:08;;;;;;;1.67;1.58;;;15.80;99.90;;;;;;5038539;28;20524;-72
2023/06/08 04:06:38;;;;;;;1.52;1.52;;;15.80;6.00;;;;;;5040661;28;20444;-72
2023/06/08 04:09:04;;;;;;;1.13;1.13;;;15.80;99.90;;;;;;5032046;28;20472;-71
2023/06/08 04:11:31;;;;;;;1.42;1.42;;;15.80;99.90;;;;;;5043139;28;20441;-72
2023/06/08 04:13:58;;;;;;;1.60;1.50;;;15.90;1.00;;;;;;5038664;28;20464;-72
2023/06/08 04:16:25;;;;;;;1.90;1.80;;;15.90;1.00;;;;;;5070008;28;20589;-72
2023/06/08 04:18:55;;;;;;;2.33;1.63;;;15.90;99.90;;;;;;5041363;28;20439;-72
2023/06/08 04:21:25;;;;;;;1.83;1.73;;;16.00;99.90;;;;;;5037896;28;20434;-72
2023/06/08 04:23:51;;;;;;;1.60;1.50;;;16.10;99.90;;;;;;5039889;28;20436;-72
2023/06/08 04:26:18;;;;;;;1.48;1.33;;;16.20;1.00;;;;;;5037557;28;20521;-72
2023/06/08 04:28:48;;;;;;;1.40;1.40;;;16.30;99.90;;;;;;5040078;28;20718;-72
2023/06/08 04:31:16;;;;;;;1.80;1.55;;;16.40;99.90;;;;;;5040246;28;20432;-72
2023/06/08 04:33:45;;;;;;;1.70;1.60;;;16.50;8.50;;;;;;5038014;28;20931;-72
2023/06/08 04:36:14;;;;;;;1.63;1.52;;;16.50;1.00;;;;;;5033942;28;20939;-72
2023/06/08 04:38:42;;;;;;;1.35;1.25;;;16.60;1.00;;;;;;5035020;28;20560;-72
2023/06/08 04:41:11;;;;;;;2.07;1.67;;;16.70;1.50;;;;;;5067571;28;20441;-73
2023/06/08 04:43:37;;;;;;;1.48;1.38;;;17.20;1.00;;;;;;5040108;28;20479;-72
2023/06/08 04:46:07;;;;;;;1.95;1.80;;;17.60;1.00;;;;;;5035047;28;20446;-72
2023/06/08 04:48:35;;;;;;;2.40;1.58;;;18.00;1.00;;;;;;5040386;28;20447;-72
2023/06/08 04:51:09;;;;;;;1.20;1.10;;;18.60;99.90;;;;;;5068716;28;20487;-73
2023/06/08 04:53:37;;;;;;;1.52;1.50;;;19.00;99.90;;;;;;5037870;28;20459;-73
2023/06/08 04:56:05;;;;;;;1.88;1.77;;;19.50;99.90;;;;;;5039808;28;20920;-73
2023/06/08 04:58:33;;;;;;;1.70;1.60;;;19.90;99.90;;;;;;5036572;28;20786;-73
2023/06/08 05:01:02;;;;;;;2.40;2.20;;;20.30;99.90;;;;;;5038067;28;20437;-72
2023/06/08 05:03:29;;;;;;;1.70;1.60;;;20.60;99.90;;;;;;5034151;28;20918;-73
2023/06/08 05:05:56;;;;;;;1.67;1.58;;;20.90;99.90;;;;;;5039621;28;21152;-73
2023/06/08 05:08:23;;;;;;;1.75;1.65;;;21.20;99.90;;;;;;5037828;28;20433;-73
2023/06/08 05:10:50;;;;;;;1.90;1.35;;;21.40;99.90;;;;;;5041681;28;20520;-72
2023/06/08 05:13:17;;;;;;;1.67;1.58;;;21.60;99.90;;;;;;5036302;28;20470;-70
2023/06/08 05:15:44;;;;;;;1.60;1.50;;;21.80;99.90;;;;;;5034716;28;20800;-70
2023/06/08 05:18:11;;;;;;;2.00;1.80;;;22.10;99.90;;;;;;5066588;28;20453;-70
2023/06/08 05:20:37;;;;;;;1.70;1.60;;;22.00;99.90;;;;;;5037602;28;20425;-71
2023/06/08 05:23:06;;;;;;;1.95;1.80;;;22.10;99.90;;;;;;5035168;28;20437;-70
2023/06/08 05:25:37;;;;;;;1.65;1.55;;;22.00;99.90;;;;;;5035116;28;20983;-71
2023/06/08 05:28:04;;;;;;;2.10;1.30;;;22.20;99.90;;;;;;5034357;28;20908;-70
2023/06/08 05:30:35;;;;;;;1.95;1.60;;;22.40;99.90;;;;;;5037784;28;20562;-70
2023/06/08 05:33:05;;;;;;;1.33;1.33;;;22.80;99.90;;;;;;5037558;28;20425;-70
2023/06/08 05:35:32;;;;;;;1.95;1.85;;;22.90;99.90;;;;;;5036567;28;20431;-70
2023/06/08 05:37:58;;;;;;;1.73;1.63;;;22.70;99.90;;;;;;5037075;28;20424;-70
2023/06/08 05:40:26;;;;;;;1.80;1.65;;;21.90;99.90;;;;;;5035978;28;20508;-70
2023/06/08 05:42:53;;;;;;;2.00;1.80;;;20.90;99.90;;;;;;5037564;28;20515;-70
2023/06/08 05:45:20;;;;;;;2.25;1.45;;;20.10;99.90;;;;;;5037496;28;20490;-70
2023/06/08 05:47:47;;;;;;;1.10;1.10;;;19.50;99.90;;;;;;5035690;28;20429;-72
2023/06/08 05:50:14;;;;;;;1.67;1.50;;;19.10;99.90;;;;;;5034787;28;20522;-72
2023/06/08 05:52:41;;;;;;;2.53;1.73;;;18.60;99.90;;;;;;5037297;28;20440;-73
2023/06/08 05:55:08;;;;;;;1.70;1.60;;;18.30;99.90;;;;;;5034468;28;20432;-73
2023/06/08 05:57:38;;;;;;;1.80;1.70;;;18.00;99.90;;;;;;5062769;28;20429;-73
2023/06/08 06:00:12;;;;;;;1.90;1.80;;;17.80;1.00;;;;;;5035023;28;21202;-72
2023/06/08 06:02:40;;;;;;;1.17;1.17;;;17.70;1.00;;;;;;5064632;28;20425;-72
2023/06/08 06:05:08;;;;;;;1.90;1.50;;;17.60;1.00;;;;;;5038292;28;20491;-72
2023/06/08 06:07:36;;;;;;;1.58;1.55;;;17.60;1.00;;;;;;5039070;28;20446;-72
2023/06/08 06:10:04;;;;;;;1.90;1.80;;;17.50;46.30;;;;;;5027718;28;20434;-72
2023/06/08 06:12:35;;;;;;;1.83;1.73;;;17.70;99.90;;;;;;5043668;28;20438;-72
2023/06/08 06:15:02;;;;;;;1.77;1.63;;;18.10;1.00;;;;;;5036426;28;20433;-72
2023/06/08 06:17:29;;;;;;;1.80;1.70;;;18.30;1.00;;;;;;5034936;28;20861;-72
2023/06/08 06:19:55;;;;;;;1.98;1.88;;;18.70;1.00;;;;;;5037329;28;20470;-73
2023/06/08 06:22:22;;;;;;;4.43;1.60;;;19.50;99.90;;;;;;5038108;28;20524;-73
2023/06/08 06:24:49;;;;;;;1.58;1.48;;;20.70;99.90;;;;;;5035857;28;20429;-73
2023/06/08 06:27:16;;;;;;;3.67;1.50;;;21.90;99.90;;;;;;5038610;28;20734;-73
2023/06/08 06:29:43;;;;;;;3.13;1.63;;;22.90;99.90;;;;;;5036886;28;20435;-70
2023/06/08 06:32:10;;;;;;;1.60;1.50;;;23.90;99.90;;;;;;5034434;28;20894;-70
2023/06/08 06:34:38;;;;;;;1.50;1.50;;;24.60;99.90;;;;;;5034771;28;20429;-73
2023/06/08 06:37:08;;;;;;;1.53;1.43;;;24.80;99.90;;;;;;5036184;28;20448;-73
2023/06/08 06:39:34;;;;;;;1.50;1.40;;;25.00;99.90;;;;;;5036645;28;20433;-73
2023/06/08 06:42:01;;;;;;;1.67;1.58;;;25.10;99.90;;;;;;5035318;28;20425;-73
2023/06/08 06:44:28;;;;;;;1.73;1.63;;;25.30;99.90;;;;;;5035644;28;20449;-73
2023/06/08 06:46:57;;;;;;;1.40;1.40;;;25.10;99.90;;;;;;5036383;28;20525;-73
2023/06/08 06:49:24;;;;;;;1.33;1.27;;;25.00;99.90;;;;;;5037534;28;20420;-73
2023/06/08 06:51:50;;;;;;;1.75;1.55;;;25.30;99.90;;;;;;5031487;28;20788;-73
2023/06/08 06:54:17;;;;;;;1.55;1.45;;;25.30;99.90;;;;;;5034229;28;21169;-73
2023/06/08 06:56:50;;;;;;;2.08;1.35;;;25.70;99.90;;;;;;5054009;28;20456;-72
2023/06/08 06:59:17;;;;;;;3.78;1.50;;;25.80;99.90;;;;;;5039204;28;20425;-72
2023/06/08 07:01:44;;;;;;;1.73;1.63;;;26.10;99.90;;;;;;5035844;28;20945;-72
2023/06/08 07:04:14;;;;;;;1.38;1.27;;;26.10;99.90;;;;;;5043364;28;20502;-72
2023/06/08 07:06:42;;;;;;;1.42;1.42;;;26.10;99.90;;;;;;5039572;28;20421;-72
2023/06/08 07:09:10;;;;;;;1.73;1.63;;;26.20;99.90;;;;;;5041789;28;20474;-72
2023/06/08 07:11:38;;;;;;;2.70;1.60;;;26.30;99.90;;;;;;5045003;28;20463;-72
2023/06/08 07:14:05;;;;;;;1.05;1.05;;;26.60;99.90;;;;;;5039887;28;20502;-72
2023/06/08 07:16:32;;;;;;;1.70;1.60;;;26.70;99.90;;;;;;5070965;28;20490;-72
2023/06/08 07:19:05;;;;;;;1.90;1.45;;;26.40;99.90;;;;;;5039235;28;20528;-72
2023/06/08 07:21:38;;;;;;;1.35;1.25;;;27.00;99.90;;;;;;5036157;28;20793;-72
2023/06/08 07:24:20;;;;;;;1.88;1.67;;;27.20;1.00;;;;;;5038586;28;20938;-72
2023/06/08 07:27:07;;;;;;;1.48;1.38;;;27.00;1.00;;;;;;5036383;28;20417;-72
2023/06/08 07:29:34;;;;;;;2.42;1.73;;;25.70;1.00;;;;;;5041558;28;20523;-72
2023/06/08 07:32:01;;;;;;;1.60;1.50;;;25.50;1.00;;;;;;5073184;28;20436;-72
2023/06/08 07:34:28;;;;;;;1.80;1.70;;;25.70;23.40;;;;;;5040013;28;20443;-72
2023/06/08 07:36:54;;;;;;;1.65;1.55;;;25.70;93.40;;;;;;5039751;28;20527;-72
2023/06/08 07:39:21;;;;;;;1.35;1.35;;;25.90;1.00;;;;;;5039646;28;20429;-71
2023/06/08 07:41:48;;;;;;;1.80;1.70;;;26.40;99.90;;;;;;5041006;28;20517;-72
2023/06/08 07:44:14;;;;;;;2.08;1.77;;;26.60;1.00;;;;;;5041201;28;20431;-71
2023/06/08 07:46:41;;;;;;;1.90;1.80;;;26.50;1.00;;;;;;5039621;28;20495;-71
2023/06/08 07:49:08;;;;;;;1.40;1.30;;;26.40;1.00;;;;;;5038453;28;20460;-71
2023/06/08 07:51:35;;;;;;;1.50;1.50;;;26.10;1.00;;;;;;5039201;28;20428;-71
2023/06/08 07:54:11;;;;;;;2.15;1.65;;;26.00;1.00;;;;;;5038015;28;20440;-71
2023/06/08 07:56:39;;;;;;;1.30;1.30;;;26.10;1.00;;;;;;5040907;28;20520;-71
2023/06/08 07:59:06;;;;;;;1.45;1.35;;;26.80;99.90;;;;;;5038559;28;20441;-71
2023/06/08 08:01:33;;;;;;;1.65;1.58;;;26.80;57.30;;;;;;5035419;28;20437;-72
2023/06/08 08:04:01;;;;;;;2.40;1.55;;;26.90;54.10;;;;;;5038050;28;20893;-71
2023/06/08 08:06:36;;;;;;;1129.90;999.90;;;27.60;45.10;;;;;;5038952;28;20455;-71
2023/06/08 08:09:03;;;;;;;1013.70;915.97;;;27.50;1.00;;;;;;5039442;28;20433;-72
2023/06/08 08:11:29;;;;;;;911.30;823.53;;;27.10;99.90;;;;;;5062574;28;20437;-72
2023/06/08 08:13:56;;;;;;;1064.30;958.40;;;27.00;69.60;;;;;;5063264;28;20864;-72
2023/06/08 08:16:23;;;;;;;70.50;63.97;;;27.30;1.00;;;;;;5032615;28;20436;-71
2023/06/08 08:18:53;;;;;;;1080.97;979.78;;;27.10;99.90;;;;;;5031962;28;20433;-71
2023/06/08 08:21:19;;;;;;;1093.15;993.78;;;27.90;1.00;;;;;;5036733;28;20569;-72
2023/06/08 08:23:46;;;;;;;1029.53;938.77;;;27.80;99.90;;;;;;5072034;28;20433;-72
2023/06/08 08:26:15;;;;;;;185.68;169.60;;;27.60;99.90;;;;;;5042422;28;20437;-71
2023/06/08 08:28:46;;;;;;;596.55;544.42;;;27.80;1.00;;;;;;5035341;28;20784;-71
2023/06/08 08:31:13;;;;;;;461.60;420.77;;;28.20;1.00;;;;;;5039190;28;20431;-71
2023/06/08 08:33:42;;;;;;;15.05;14.07;;;28.20;1.00;;;;;;5043352;28;20808;-72
2023/06/08 08:36:10;;;;;;;190.73;173.43;;;28.30;1.00;;;;;;5036149;28;20437;-71
2023/06/08 08:38:38;;;;;;;0.80;0.57;;;28.70;1.00;;;;;;5036758;28;20421;-72
2023/06/08 08:41:12;;;;;;;1.58;1.58;;;28.90;1.00;;;;;;5042706;28;20919;-72
2023/06/08 08:44:01;;;;;;;1.48;1.48;;;28.10;99.90;;;;;;5038403;28;20441;-71
2023/06/08 08:46:34;;;;;;;1.92;1.75;;;28.20;99.90;;;;;;5032413;28;20444;-72
2023/06/08 08:49:04;;;;;;;2.10;2.00;;;28.60;99.90;;;;;;5062762;28;20444;-71
2023/06/08 08:51:32;;;;;;;1.83;1.73;;;28.90;99.90;;;;;;5032791;28;20421;-72
2023/06/08 08:54:02;;;;;;;1.90;1.80;;;29.20;99.90;;;;;;5031895;28;20444;-71
2023/06/08 08:56:36;;;;;;;2.30;1.85;;;29.20;99.90;;;;;;5032382;28;20441;-71
2023/06/08 08:59:05;;;;;;;1.92;1.83;;;29.30;99.90;;;;;;5031894;28;20545;-71
2023/06/08 09:01:33;;;;;;;2.17;2.03;;;29.30;99.90;;;;;;5037256;28;20468;-71
2023/06/08 09:04:01;;;;;;;2.20;2.03;;;28.80;99.90;;;;;;5035716;28;20429;-71
2023/06/08 09:06:28;;;;;;;1.90;1.80;;;28.90;99.90;;;;;;5037194;28;20425;-72
2023/06/08 09:08:55;;;;;;;2.42;1.92;;;28.90;99.90;;;;;;5039464;28;20461;-72
2023/06/08 09:11:23;;;;;;;2.33;2.13;;;28.60;99.90;;;;;;5039405;28;20429;-72
2023/06/08 09:14:07;;;;;;;2.03;1.92;;;28.60;99.90;;;;;;5036685;28;20524;-71
2023/06/08 09:16:43;;;;;;;2.40;2.00;;;28.00;99.90;;;;;;5037739;28;20469;-71
2023/06/08 09:19:11;;;;;;;1.67;1.60;;;28.60;99.90;;;;;;5037504;28;20426;-72
2023/06/08 09:21:40;;;;;;;1.83;1.73;;;28.10;1.00;;;;;;5039785;28;20928;-71
2023/06/08 09:27:49;;;;;;;1.88;1.77;;;28.00;1.00;;;;;;5039324;28;20380;-71
2023/06/08 09:30:22;;;;;;;1.45;1.38;;;28.20;25.90;;;;;;5036007;28;20468;-72
2023/06/08 09:32:52;;;;;;;1.92;1.83;;;28.10;1.00;;;;;;5040680;28;20490;-72
2023/06/08 09:35:22;;;;;;;1.90;1.80;;;28.00;1.00;;;;;;5037164;28;20476;-71
2023/06/08 09:37:50;;;;;;;1.95;1.85;;;28.10;99.90;;;;;;5072283;28;21005;-71
2023/06/08 09:40:21;;;;;;;2.03;1.93;;;28.50;1.00;;;;;;5039606;28;20850;-71
2023/06/08 09:42:53;;;;;;;2.10;2.00;;;28.10;1.00;;;;;;5038708;28;20445;-71
2023/06/08 09:45:21;;;;;;;2.03;1.90;;;28.40;1.00;;;;;;5038415;28;20857;-72
2023/06/08 09:47:48;;;;;;;1.80;1.70;;;28.60;99.90;;;;;;5038764;28;20447;-72
2023/06/08 09:50:16;;;;;;;1.70;1.60;;;28.30;99.90;;;;;;5039400;28;20783;-71
2023/06/08 09:52:46;;;;;;;1.85;1.75;;;28.30;99.90;;;;;;5069259;28;20481;-72
2023/06/08 09:55:16;;;;;;;1.60;1.60;;;29.10;23.10;;;;;;5041706;28;20437;-71
2023/06/08 09:57:45;;;;;;;1.93;1.83;;;29.80;1.00;;;;;;5040340;28;20806;-72
2023/06/08 10:00:14;;;;;;;1.85;1.75;;;30.40;1.00;;;;;;5038850;28;20823;-72
2023/06/08 10:02:54;;;;;;;2.20;2.00;;;30.70;1.00;;;;;;5038727;28;22833;-72
2023/06/08 10:05:22;;;;;;;1.88;1.70;;;30.30;99.90;;;;;;5037614;28;20428;-72
2023/06/08 10:07:54;;;;;;;1.65;1.55;;;30.50;99.90;;;;;;5038952;28;20479;-72
2023/06/08 10:10:25;;;;;;;1.88;1.77;;;30.20;99.90;;;;;;5038472;28;20433;-71
2023/06/08 10:12:55;;;;;;;2.00;1.90;;;30.30;99.90;;;;;;5041887;28;20437;-72
2023/06/08 10:15:22;;;;;;;1.98;1.88;;;30.10;99.90;;;;;;5036219;28;20456;-72
2023/06/08 10:17:53;;;;;;;2.22;2.10;;;30.30;99.90;;;;;;5035282;28;20451;-72
2023/06/08 10:20:20;;;;;;;1.90;1.80;;;30.40;99.90;;;;;;5034037;28;20599;-72
2023/06/08 10:22:47;;;;;;;1.70;1.60;;;30.30;99.90;;;;;;5061204;28;20661;-71
2023/06/08 10:25:18;;;;;;;2.10;2.00;;;29.80;99.90;;;;;;5030300;28;20855;-71
2023/06/08 10:27:50;;;;;;;1.85;1.77;;;29.30;99.90;;;;;;5030447;28;20443;-72
2023/06/08 10:30:44;;;;;;;2.20;2.10;;;29.70;99.90;;;;;;5062660;28;20442;-72
2023/06/08 10:33:15;;;;;;;2.08;1.98;;;30.10;99.90;;;;;;5031111;28;20911;-72
2023/06/08 10:36:02;;;;;;;2.00;1.90;;;30.80;99.90;;;;;;5031105;28;20572;-71
2023/06/08 10:38:34;;;;;;;2.10;1.90;;;31.50;99.90;;;;;;5029963;28;20577;-72
2023/06/08 10:41:00;;;;;;;1.90;1.80;;;31.10;99.90;;;;;;5033081;28;20506;-72
2023/06/08 10:43:30;;;;;;;2.17;1.98;;;31.00;99.90;;;;;;5030612;28;20433;-72
2023/06/08 10:46:37;;;;;;;2.00;1.90;;;31.00;99.90;;;;;;5028665;28;20422;-72
2023/06/08 10:49:05;;;;;;;2.03;1.93;;;30.50;99.90;;;;;;5030736;28;20495;-72
2023/06/08 10:51:42;;;;;;;1.83;1.73;;;29.30;18.50;;;;;;5030933;28;20457;-72
2023/06/08 10:54:25;;;;;;;1.85;1.73;;;29.80;99.90;;;;;;5032632;28;20523;-72
2023/06/08 10:56:57;;;;;;;2.80;2.00;;;30.30;99.90;;;;;;5031725;28;20432;-72
2023/06/08 10:59:45;;;;;;;1.58;1.58;;;30.60;99.90;;;;;;5029688;28;20463;-72
2023/06/08 11:02:15;;;;;;;2.08;1.98;;;30.20;99.90;;;;;;5030335;28;20522;-72
2023/06/08 11:04:42;;;;;;;2.05;1.83;;;30.10;1.00;;;;;;5031155;28;20444;-72
2023/06/08 11:07:26;;;;;;;2.05;1.95;;;30.20;99.90;;;;;;5030943;28;20456;-72
2023/06/08 11:09:52;;;;;;;1.85;1.75;;;30.40;1.00;;;;;;5031770;28;20526;-72
2023/06/08 11:12:23;;;;;;;2.08;1.98;;;30.30;99.90;;;;;;5068828;28;20435;-72
2023/06/08 11:14:49;;;;;;;1.80;1.70;;;30.30;1.00;;;;;;5031541;28;20433;-72
2023/06/08 11:17:16;;;;;;;1.80;1.70;;;30.50;1.00;;;;;;5031604;28;20435;-72
2023/06/08 11:19:44;;;;;;;1.92;1.83;;;30.00;1.00;;;;;;5032561;28;20474;-73
2023/06/08 11:22:12;;;;;;;1.77;1.67;;;30.10;99.90;;;;;;5031704;28;20442;-73
2023/06/08 11:24:41;;;;;;;1.77;1.77;;;29.50;99.90;;;;;;5031726;28;20490;-72
2023/06/08 11:27:14;;;;;;;2.23;2.13;;;29.20;1.00;;;;;;5033761;28;20429;-72
2023/06/08 11:29:46;;;;;;;1.95;1.60;;;29.70;1.00;;;;;;5031030;28;20543;-72
2023/06/08 11:32:15;;;;;;;2.45;1.80;;;29.80;1.00;;;;;;5032980;28;20541;-72
2023/06/08 11:34:49;;;;;;;1.92;1.83;;;30.00;99.90;;;;;;5033900;28;20458;-72
2023/06/08 11:37:17;;;;;;;1.83;1.73;;;30.40;99.90;;;;;;5032202;28;20437;-72
2023/06/08 11:39:46;;;;;;;1.58;1.48;;;30.60;99.90;;;;;;5034550;28;20796;-72
2023/06/08 11:42:14;;;;;;;2.10;1.95;;;31.40;1.00;;;;;;5064655;28;20488;-72
2023/06/08 11:44:41;;;;;;;1.83;1.75;;;32.00;1.00;;;;;;5032359;28;20460;-72
2023/06/08 11:47:08;;;;;;;2.25;1.85;;;31.90;1.00;;;;;;5034240;28;20460;-72
2023/06/08 11:49:57;;;;;;;1.70;1.60;;;32.10;19.20;;;;;;5034124;28;20456;-72
2023/06/08 11:52:24;;;;;;;2.00;1.90;;;32.40;99.90;;;;;;5035590;28;20933;-72
2023/06/08 11:54:53;;;;;;;1.85;1.75;;;32.60;1.00;;;;;;5065132;28;20524;-72
2023/06/08 11:57:49;;;;;;;1.80;1.70;;;31.90;38.90;;;;;;5035699;28;20943;-72
2023/06/08 12:00:32;;;;;;;1.70;1.60;;;31.60;99.90;;;;;;5034062;28;20431;-72
2023/06/08 12:03:02;;;;;;;1.73;1.60;;;30.80;88.50;;;;;;5039958;28;20512;-71
2023/06/08 12:05:33;;;;;;;2.00;1.90;;;30.00;1.00;;;;;;5037388;28;20515;-72
2023/06/08 12:08:15;;;;;;;1.70;1.60;;;29.80;1.00;;;;;;5041435;28;21407;-72
2023/06/08 12:10:46;;;;;;;1.88;1.77;;;30.30;1.00;;;;;;5040920;28;20521;-72
2023/06/08 12:13:15;;;;;;;1.30;1.30;;;31.20;99.90;;;;;;5037620;28;20432;-72
2023/06/08 12:16:05;;;;;;;1.60;1.50;;;31.90;1.00;;;;;;5040158;28;20441;-72
2023/06/08 12:18:44;;;;;;;1.50;1.40;;;31.60;20.30;;;;;;5035739;28;20943;-71
2023/06/08 12:21:15;;;;;;;1.90;1.80;;;31.90;99.90;;;;;;5067620;28;20433;-72
2023/06/08 12:23:43;;;;;;;1.80;1.70;;;31.30;79.40;;;;;;5040183;28;20448;-72
2023/06/08 12:26:12;;;;;;;1.85;1.75;;;30.90;99.90;;;;;;5040245;28;20480;-72
2023/06/08 12:28:38;;;;;;;1.77;1.67;;;30.40;99.90;;;;;;5069861;28;20429;-72
2023/06/08 12:31:05;;;;;;;1.80;1.70;;;30.00;99.90;;;;;;5073065;28;20491;-72
2023/06/08 12:33:32;;;;;;;2.10;1.90;;;29.90;99.90;;;;;;5042224;28;21115;-72
2023/06/08 12:36:00;;;;;;;1.63;1.53;;;29.70;1.00;;;;;;5039833;28;20721;-72
2023/06/08 12:38:30;;;;;;;1.63;1.52;;;29.70;1.00;;;;;;5040370;28;20563;-71
2023/06/08 12:40:57;;;;;;;2.00;1.90;;;29.40;5.80;;;;;;5036515;28;20500;-71
2023/06/08 12:43:25;;;;;;;2.05;1.95;;;28.50;1.00;;;;;;5039343;28;20575;-71
2023/06/08 12:45:53;;;;;;;1.58;1.58;;;28.20;99.90;;;;;;5041686;28;20795;-72
2023/06/08 12:48:20;;;;;;;1.88;1.77;;;28.00;99.90;;;;;;5072129;28;20433;-72
2023/06/08 12:50:47;;;;;;;1.97;1.87;;;27.90;1.00;;;;;;5041108;28;20428;-71
2023/06/08 12:53:13;;;;;;;1.60;1.50;;;27.90;99.90;;;;;;5038278;28;20800;-71
2023/06/08 12:55:47;;;;;;;2.05;1.85;;;27.70;99.90;;;;;;5039654;28;20429;-72
2023/06/08 12:58:17;;;;;;;2.80;1.60;;;27.50;1.00;;;;;;5039600;28;21016;-74
2023/06/08 13:00:44;;;;;;;1.70;1.63;;;27.50;1.00;;;;;;5038113;28;20485;-71
2023/06/08 13:03:11;;;;;;;1.50;1.50;;;27.20;1.00;;;;;;5041675;28;20856;-72
2023/06/08 13:05:47;;;;;;;1.60;1.50;;;26.90;99.90;;;;;;5037618;28;20991;-71